createdAt,value
2023-05-22T00:02:33.098Z,92699.75
2023-05-22T00:05:18.467Z,92706.41
2023-05-22T00:08:01.478Z,92708.19
2023-05-22T00:10:44.327Z,92699.78
2023-05-22T00:13:27.227Z,92703.97
2023-05-22T00:16:10.066Z,92697.78
2023-05-22T00:18:55.331Z,92708.19
2023-05-22T00:21:38.168Z,92702.16
2023-05-22T00:24:21.055Z,92697.56
2023-05-22T00:27:03.935Z,92699.41
2023-05-22T00:29:46.805Z,92687.16
2023-05-22T00:32:29.971Z,92691.78
2023-05-22T00:35:14.256Z,92697.19
2023-05-22T00:37:57.495Z,92692.19
2023-05-22T00:40:40.754Z,92696.59
2023-05-22T00:43:23.861Z,92691.00
2023-05-22T00:46:07.612Z,92686.78
2023-05-22T00:48:52.502Z,92684.59
2023-05-22T00:51:36.808Z,92689.19
2023-05-22T00:54:20.195Z,92684.38
2023-05-22T00:57:03.630Z,92673.19
2023-05-22T00:59:46.616Z,92676.41
2023-05-22T01:02:32.994Z,92672.19
2023-05-22T01:05:18.363Z,92667.00
2023-05-22T01:08:02.899Z,92674.19
2023-05-22T01:10:45.886Z,92678.59
2023-05-22T01:13:35.424Z,92676.59
2023-05-22T01:16:29.835Z,92680.00
2023-05-22T01:19:23.652Z,92673.38
2023-05-22T01:22:22.143Z,92670.41
2023-05-22T01:25:26.715Z,92667.19
2023-05-22T01:28:36.518Z,92675.81
2023-05-22T01:31:25.566Z,92664.81
2023-05-22T01:34:12.137Z,92674.38
2023-05-22T01:36:57.448Z,92671.19
2023-05-22T01:39:43.883Z,92674.59
2023-05-22T01:42:27.111Z,92667.78
2023-05-22T01:45:12.208Z,92664.00
2023-05-22T01:47:56.524Z,92670.78
2023-05-22T01:50:40.128Z,92667.41
2023-05-22T01:53:32.495Z,92667.59
2023-05-22T01:56:19.930Z,92666.78
2023-05-22T01:59:14.985Z,92668.78
2023-05-22T02:02:01.774Z,92674.78
2023-05-22T02:04:49.966Z,92672.41
2023-05-22T02:07:35.137Z,92662.81
2023-05-22T02:10:19.598Z,92664.78
2023-05-22T02:13:03.378Z,92663.97
2023-05-22T02:15:47.031Z,92657.97
2023-05-22T02:18:31.133Z,92653.38
2023-05-22T02:21:15.463Z,92652.16
2023-05-22T02:23:58.332Z,92645.56
2023-05-22T02:26:42.496Z,92642.75
2023-05-22T02:29:25.325Z,92645.56
2023-05-22T02:32:09.204Z,92637.56
2023-05-22T02:34:54.667Z,92639.56
2023-05-22T02:37:39.203Z,92636.97
2023-05-22T02:40:22.694Z,92631.75
2023-05-22T02:43:06.456Z,92625.97
2023-05-22T02:45:49.353Z,92628.78
2023-05-22T02:48:33.430Z,92620.16
2023-05-22T02:51:16.315Z,92620.16
2023-05-22T02:54:00.540Z,92621.97
2023-05-22T02:56:43.782Z,92634.97
2023-05-22T02:59:26.929Z,92627.97
2023-05-22T03:02:10.060Z,92627.16
2023-05-22T03:04:53.181Z,92621.97
2023-05-22T03:07:37.197Z,92619.38
2023-05-22T03:10:21.564Z,92624.34
2023-05-22T03:13:04.557Z,92623.56
2023-05-22T03:15:47.452Z,92621.97
2023-05-22T03:18:32.284Z,92620.56
2023-05-22T03:21:15.104Z,92618.16
2023-05-22T03:23:57.924Z,92628.78
2023-05-22T03:26:42.203Z,92630.16
2023-05-22T03:29:29.686Z,92627.97
2023-05-22T03:32:12.667Z,92627.56
2023-05-22T03:34:55.761Z,92628.75
2023-05-22T03:37:38.662Z,92630.34
2023-05-22T03:40:21.637Z,92623.53
2023-05-22T03:43:05.868Z,92630.34
2023-05-22T03:45:48.722Z,92634.97
2023-05-22T03:48:32.298Z,92632.94
2023-05-22T03:51:16.593Z,92635.97
2023-05-22T03:54:00.368Z,92635.56
2023-05-22T03:56:44.363Z,92631.16
2023-05-22T03:59:28.581Z,92635.38
2023-05-22T04:02:13.011Z,92640.56
2023-05-22T04:04:56.087Z,92644.16
2023-05-22T04:07:40.579Z,92643.75
2023-05-22T04:10:23.701Z,92638.75
2023-05-22T04:13:07.238Z,92635.34
2023-05-22T04:15:52.935Z,92633.75
2023-05-22T04:18:36.823Z,92641.56
2023-05-22T04:21:20.246Z,92638.13
2023-05-22T04:24:07.323Z,92638.34
2023-05-22T04:26:50.588Z,92643.34
2023-05-22T04:29:36.254Z,92642.94
2023-05-22T04:32:21.868Z,92642.94
2023-05-22T04:35:05.800Z,92642.75
2023-05-22T04:37:48.665Z,92648.53
2023-05-22T04:40:34.402Z,92651.97
2023-05-22T04:43:18.855Z,92647.16
2023-05-22T04:46:01.795Z,92650.19
2023-05-22T04:48:47.224Z,92644.56
2023-05-22T04:51:32.996Z,92646.56
2023-05-22T04:54:15.877Z,92644.56
2023-05-22T04:56:58.787Z,92647.16
2023-05-22T04:59:42.439Z,92643.56
2023-05-22T05:02:25.465Z,92637.34
2023-05-22T05:05:10.620Z,92639.78
2023-05-22T05:07:54.625Z,92643.56
2023-05-22T05:10:37.879Z,92645.38
2023-05-22T05:13:20.984Z,92644.78
2023-05-22T05:16:04.378Z,92644.97
2023-05-22T05:18:47.249Z,92639.16
2023-05-22T05:21:31.631Z,92640.38
2023-05-22T05:24:18.630Z,92640.38
2023-05-22T05:27:02.704Z,92642.34
2023-05-22T05:29:46.718Z,92644.16
2023-05-22T05:32:41.934Z,92645.34
2023-05-22T05:35:36.958Z,92643.50
2023-05-22T05:38:26.062Z,92644.31
2023-05-22T05:41:10.228Z,92634.88
2023-05-22T05:43:53.911Z,92641.06
2023-05-22T05:46:37.104Z,92644.88
2023-05-22T05:49:20.946Z,92640.22
2023-05-22T05:52:05.159Z,92644.81
2023-05-22T05:54:52.468Z,92648.22
2023-05-22T05:57:37.739Z,92636.78
2023-05-22T06:00:24.149Z,92636.53
2023-05-22T06:03:08.458Z,92634.31
2023-05-22T06:06:07.238Z,92636.31
2023-05-22T06:09:10.053Z,92633.84
2023-05-22T06:12:14.259Z,92640.84
2023-05-22T06:15:00.606Z,92638.56
2023-05-22T06:17:43.709Z,92639.13
2023-05-22T06:20:27.677Z,92634.09
2023-05-22T06:23:11.344Z,92637.25
2023-05-22T06:25:55.560Z,92637.19
2023-05-22T06:28:41.479Z,92634.16
2023-05-22T06:31:24.702Z,92631.50
2023-05-22T06:34:11.127Z,92632.47
2023-05-22T06:36:54.344Z,92624.81
2023-05-22T06:39:41.429Z,92639.63
2023-05-22T06:42:44.810Z,92623.72
2023-05-22T06:45:38.608Z,92630.09
2023-05-22T06:48:42.010Z,92625.63
2023-05-22T06:51:29.943Z,92633.38
2023-05-22T06:54:22.808Z,92637.31
2023-05-22T06:57:11.622Z,92636.66
2023-05-22T06:59:54.532Z,92639.88
2023-05-22T07:02:57.059Z,92646.19
2023-05-22T07:05:48.349Z,92637.53
2023-05-22T07:08:31.330Z,92649.53
2023-05-22T07:11:14.294Z,92646.22
2023-05-22T07:13:57.685Z,92652.56
2023-05-22T07:16:41.348Z,92646.06
2023-05-22T07:19:26.732Z,92646.19
2023-05-22T07:22:12.281Z,92647.72
2023-05-22T07:24:56.251Z,92645.41
2023-05-22T07:27:42.669Z,92642.38
2023-05-22T07:30:27.837Z,92645.09
2023-05-22T07:33:11.756Z,92637.56
2023-05-22T07:35:56.624Z,92646.91
2023-05-22T07:38:39.651Z,92648.06
2023-05-22T07:41:24.124Z,92640.03
2023-05-22T07:44:07.276Z,92649.50
2023-05-22T07:46:54.406Z,92647.59
2023-05-22T07:49:38.576Z,92650.03
2023-05-22T07:52:24.281Z,92643.56
2023-05-22T07:55:09.473Z,92645.75
2023-05-22T07:57:54.963Z,92649.41
2023-05-22T08:00:46.453Z,92645.66
2023-05-22T08:06:12.359Z,92644.97
2023-05-22T08:08:56.643Z,92644.84
2023-05-22T08:11:42.178Z,92640.66
2023-05-22T08:14:25.053Z,92645.31
2023-05-22T08:17:08.069Z,92642.34
2023-05-22T08:19:51.027Z,92648.53
2023-05-22T08:22:34.715Z,92644.53
2023-05-22T08:25:19.112Z,92643.38
2023-05-22T08:28:02.054Z,92653.06
2023-05-22T08:30:45.011Z,92651.66
2023-05-22T08:33:28.218Z,92651.91
2023-05-22T08:36:11.352Z,92644.84
2023-05-22T08:38:54.192Z,92643.91
2023-05-22T08:41:38.473Z,92640.56
2023-05-22T08:44:22.075Z,92647.59
2023-05-22T08:47:09.962Z,92652.81
2023-05-22T08:49:54.879Z,92643.16
2023-05-22T08:52:44.200Z,92653.97
2023-05-22T08:55:27.791Z,92641.00
2023-05-22T08:58:12.606Z,92636.25
2023-05-22T09:00:55.694Z,92641.72
2023-05-22T09:03:38.944Z,92640.09
2023-05-22T09:06:21.917Z,92642.72
2023-05-22T09:09:05.026Z,92637.53
2023-05-22T09:11:47.988Z,92629.16
2023-05-22T09:14:39.401Z,92638.03
2023-05-22T09:17:22.411Z,92634.13
2023-05-22T09:20:06.662Z,92636.63
2023-05-22T09:22:49.655Z,92634.84
2023-05-22T09:25:32.788Z,92634.25
2023-05-22T09:28:15.884Z,92635.84
2023-05-22T09:31:01.798Z,92635.97
2023-05-22T09:33:46.211Z,92643.69
2023-05-22T09:36:32.450Z,92636.09
2023-05-22T09:39:15.601Z,92640.34
2023-05-22T09:42:02.783Z,92634.63
2023-05-22T09:44:50.128Z,92646.41
2023-05-22T09:47:35.326Z,92641.47
2023-05-22T09:50:18.577Z,92646.06
2023-05-22T09:53:04.422Z,92643.91
2023-05-22T09:55:49.508Z,92652.53
2023-05-22T09:58:34.546Z,92652.88
2023-05-22T10:01:18.581Z,92650.03
2023-05-22T10:04:05.357Z,92643.75
2023-05-22T10:06:52.260Z,92643.75
2023-05-22T10:09:40.677Z,92639.25
2023-05-22T10:12:25.822Z,92647.47
2023-05-22T10:15:10.397Z,92644.81
2023-05-22T10:17:53.279Z,92647.19
2023-05-22T10:20:38.349Z,92641.09
2023-05-22T10:23:22.519Z,92631.50
2023-05-22T10:26:06.564Z,92630.13
2023-05-22T10:28:54.883Z,92631.16
2023-05-22T10:31:45.472Z,92637.19
2023-05-22T10:34:52.680Z,92643.03
2023-05-22T10:37:49.852Z,92626.84
2023-05-22T10:40:36.236Z,92626.22
2023-05-22T10:43:19.516Z,92627.97
2023-05-22T10:46:07.224Z,92628.31
2023-05-22T10:48:55.619Z,92623.66
2023-05-22T10:51:38.871Z,92615.44
2023-05-22T10:54:39.833Z,92618.50
2023-05-22T10:57:25.451Z,92618.84
2023-05-22T11:00:13.909Z,92624.78
2023-05-22T11:03:17.353Z,92615.25
2023-05-22T11:06:01.975Z,92606.47
2023-05-22T11:08:44.853Z,92614.66
2023-05-22T11:11:29.809Z,92602.47
2023-05-22T11:14:14.115Z,92606.66
2023-05-22T11:17:01.164Z,92597.56
2023-05-22T11:19:44.224Z,92596.88
2023-05-22T11:22:32.319Z,92605.28
2023-05-22T11:25:18.463Z,92600.63
2023-05-22T11:28:04.447Z,92607.75
2023-05-22T11:30:47.752Z,92597.00
2023-05-22T11:33:30.715Z,92591.09
2023-05-22T11:36:14.158Z,92587.38
2023-05-22T11:38:59.519Z,92591.16
2023-05-22T11:41:42.405Z,92599.13
2023-05-22T11:44:28.084Z,92595.25
2023-05-22T11:47:11.522Z,92592.31
2023-05-22T11:49:55.329Z,92584.63
2023-05-22T11:52:41.022Z,92590.94
2023-05-22T11:55:24.293Z,92585.94
2023-05-22T11:58:07.318Z,92585.00
2023-05-22T12:00:51.562Z,92588.06
2023-05-22T12:03:34.683Z,92585.31
2023-05-22T12:06:19.211Z,92585.34
2023-05-22T12:09:02.910Z,92585.97
2023-05-22T12:11:47.744Z,92589.34
2023-05-22T12:14:32.331Z,92587.66
2023-05-22T12:17:18.377Z,92592.94
2023-05-22T12:20:01.321Z,92592.06
2023-05-22T12:22:45.181Z,92586.72
2023-05-22T12:25:34.887Z,92588.59
2023-05-22T12:28:17.751Z,92580.81
2023-05-22T12:31:00.762Z,92583.56
2023-05-22T12:33:45.511Z,92589.09
2023-05-22T12:36:40.276Z,92572.59
2023-05-22T12:39:23.246Z,92570.16
2023-05-22T12:42:08.623Z,92570.59
2023-05-22T12:44:54.688Z,92570.81
2023-05-22T12:47:37.815Z,92560.53
2023-05-22T12:50:22.146Z,92570.22
2023-05-22T12:53:04.885Z,92568.44
2023-05-22T12:55:47.752Z,92565.50
2023-05-22T12:58:30.633Z,92564.50
2023-05-22T13:01:13.656Z,92570.31
2023-05-22T13:03:56.538Z,92570.91
2023-05-22T13:06:40.743Z,92566.25
2023-05-22T13:09:23.823Z,92569.81
2023-05-22T13:12:08.442Z,92573.44
2023-05-22T13:14:51.287Z,92562.41
2023-05-22T13:17:34.162Z,92558.25
2023-05-22T13:20:17.075Z,92560.31
2023-05-22T13:23:01.307Z,92554.78
2023-05-22T13:25:44.216Z,92551.69
2023-05-22T13:28:27.019Z,92558.09
2023-05-22T13:31:09.968Z,92552.88
2023-05-22T13:33:52.901Z,92550.78
2023-05-22T13:36:35.966Z,92552.88
2023-05-22T13:39:20.270Z,92557.69
2023-05-22T13:42:03.168Z,92552.75
2023-05-22T13:44:46.725Z,92542.44
2023-05-22T13:47:29.648Z,92546.09
2023-05-22T13:50:12.560Z,92537.56
2023-05-22T13:52:55.680Z,92537.56
2023-05-22T13:55:40.009Z,92536.66
2023-05-22T13:58:23.133Z,92533.63
2023-05-22T14:01:06.106Z,92532.16
2023-05-22T14:03:49.693Z,92532.53
2023-05-22T14:06:32.733Z,92533.13
2023-05-22T14:09:15.929Z,92521.38
2023-05-22T14:12:00.299Z,92529.97
2023-05-22T14:14:43.752Z,92527.78
2023-05-22T14:17:27.801Z,92530.94
2023-05-22T14:20:11.756Z,92526.56
2023-05-22T14:22:57.675Z,92523.34
2023-05-22T14:25:42.951Z,92527.59
2023-05-22T14:28:27.391Z,92529.38
2023-05-22T14:31:11.584Z,92524.75
2023-05-22T14:33:54.648Z,92525.97
2023-05-22T14:36:37.702Z,92519.78
2023-05-22T14:39:20.773Z,92520.81
2023-05-22T14:42:03.877Z,92519.59
2023-05-22T14:44:48.290Z,92507.72
2023-05-22T14:47:31.612Z,92516.75
2023-05-22T14:50:19.533Z,92514.31
2023-05-22T14:53:03.615Z,92513.47
2023-05-22T14:55:46.458Z,92515.44
2023-05-22T14:58:29.342Z,92508.34
2023-05-22T15:01:13.976Z,92505.19
2023-05-22T15:03:56.976Z,92505.16
2023-05-22T15:06:39.950Z,92500.34
2023-05-22T15:09:23.676Z,92500.00
2023-05-22T15:12:07.238Z,92501.66
2023-05-22T15:14:50.100Z,92495.38
2023-05-22T15:17:34.350Z,92491.44
2023-05-22T15:20:17.619Z,92488.22
2023-05-22T15:23:00.741Z,92485.22
2023-05-22T15:25:44.794Z,92486.66
2023-05-22T15:28:27.762Z,92490.00
2023-05-22T15:31:10.642Z,92485.88
2023-05-22T15:33:56.849Z,92480.59
2023-05-22T15:36:40.331Z,92481.50
2023-05-22T15:39:23.255Z,92473.50
2023-05-22T15:42:07.110Z,92468.75
2023-05-22T15:44:50.922Z,92464.59
2023-05-22T15:47:33.932Z,92462.94
2023-05-22T15:50:18.313Z,92460.53
2023-05-22T15:53:01.550Z,92464.59
2023-05-22T15:55:44.880Z,92462.56
2023-05-22T15:58:28.487Z,92459.31
2023-05-22T16:01:12.236Z,92452.22
2023-05-22T16:03:55.123Z,92462.38
2023-05-22T16:06:39.996Z,92461.34
2023-05-22T16:09:23.014Z,92463.56
2023-05-22T16:12:07.539Z,92461.25
2023-05-22T16:14:50.908Z,92458.88
2023-05-22T16:17:34.113Z,92467.13
2023-05-22T16:20:17.350Z,92464.50
2023-05-22T16:23:01.665Z,92462.72
2023-05-22T16:25:44.431Z,92463.03
2023-05-22T16:28:27.444Z,92455.97
2023-05-22T16:31:10.454Z,92452.31
2023-05-22T16:33:54.034Z,92455.81
2023-05-22T16:36:37.673Z,92456.09
2023-05-22T16:39:21.926Z,92450.28
2023-05-22T16:42:05.267Z,92459.81
2023-05-22T16:44:48.131Z,92454.81
2023-05-22T16:47:31.155Z,92456.41
2023-05-22T16:50:14.283Z,92464.63
2023-05-22T16:52:57.174Z,92460.97
2023-05-22T16:55:41.855Z,92461.25
2023-05-22T16:58:24.871Z,92461.75
2023-05-22T17:01:08.332Z,92469.19
2023-05-22T17:03:51.362Z,92468.34
2023-05-22T17:06:35.450Z,92468.63
2023-05-22T17:09:18.451Z,92481.31
2023-05-22T17:12:02.626Z,92476.53
2023-05-22T17:14:45.798Z,92480.25
2023-05-22T17:17:28.661Z,92479.72
2023-05-22T17:20:12.723Z,92476.81
2023-05-22T17:22:55.564Z,92479.72
2023-05-22T17:25:38.700Z,92478.94
2023-05-22T17:28:23.011Z,92475.22
2023-05-22T17:31:06.385Z,92474.97
2023-05-22T17:33:49.346Z,92469.69
2023-05-22T17:36:33.204Z,92470.16
2023-05-22T17:39:15.984Z,92471.97
2023-05-22T17:42:00.363Z,92475.09
2023-05-22T17:44:44.644Z,92481.13
2023-05-22T17:47:27.597Z,92478.22
2023-05-22T17:50:11.574Z,92474.22
2023-05-22T17:52:54.536Z,92473.91
2023-05-22T17:55:37.395Z,92471.75
2023-05-22T17:58:21.082Z,92467.53
2023-05-22T18:01:05.408Z,92475.38
2023-05-22T18:03:48.307Z,92477.22
2023-05-22T18:06:32.080Z,92476.38
2023-05-22T18:09:15.116Z,92467.91
2023-05-22T18:11:59.116Z,92473.66
2023-05-22T18:14:42.036Z,92467.78
2023-05-22T18:17:26.519Z,92466.09
2023-05-22T18:20:12.013Z,92466.28
2023-05-22T18:22:54.815Z,92466.38
2023-05-22T18:25:37.676Z,92466.31
2023-05-22T18:28:23.501Z,92460.72
2023-05-22T18:31:06.450Z,92462.44
2023-05-22T18:33:51.115Z,92463.84
2023-05-22T18:36:35.266Z,92469.50
2023-05-22T18:39:18.094Z,92463.59
2023-05-22T18:42:01.132Z,92465.56
2023-05-22T18:44:46.300Z,92466.16
2023-05-22T18:47:31.044Z,92468.03
2023-05-22T18:50:15.428Z,92464.97
2023-05-22T18:52:58.306Z,92462.44
2023-05-22T18:55:41.925Z,92466.44
2023-05-22T18:58:25.867Z,92469.72
2023-05-22T19:01:08.809Z,92469.31
2023-05-22T19:03:51.633Z,92480.47
2023-05-22T19:06:36.703Z,92477.41
2023-05-22T19:09:19.500Z,92490.59
2023-05-22T19:12:02.824Z,92486.53
2023-05-22T19:14:48.201Z,92484.31
2023-05-22T19:17:31.042Z,92488.69
2023-05-22T19:20:13.974Z,92490.94
2023-05-22T19:22:58.461Z,92489.59
2023-05-22T19:25:41.322Z,92500.56
2023-05-22T19:28:25.854Z,92502.59
2023-05-22T19:31:08.755Z,92498.31
2023-05-22T19:33:51.904Z,92509.97
2023-05-22T19:36:36.127Z,92513.78
2023-05-22T19:39:21.127Z,92511.28
2023-05-22T19:42:04.095Z,92506.16
2023-05-22T19:44:48.169Z,92507.84
2023-05-22T19:47:31.174Z,92509.81
2023-05-22T19:50:14.122Z,92519.16
2023-05-22T19:52:57.004Z,92518.84
2023-05-22T19:55:42.193Z,92520.31
2023-05-22T19:58:25.040Z,92518.41
2023-05-22T20:01:08.686Z,92523.31
2023-05-22T20:03:51.959Z,92528.63
2023-05-22T20:06:35.094Z,92531.50
2023-05-22T20:09:18.036Z,92530.84
2023-05-22T20:12:02.407Z,92535.50
2023-05-22T20:14:45.203Z,92523.88
2023-05-22T20:17:28.192Z,92529.25
2023-05-22T20:20:12.151Z,92524.47
2023-05-22T20:22:56.162Z,92522.28
2023-05-22T20:25:39.189Z,92529.34
2023-05-22T20:28:23.776Z,92533.41
2023-05-22T20:31:06.836Z,92532.25
2023-05-22T20:33:49.701Z,92530.91
2023-05-22T20:36:33.444Z,92537.97
2023-05-22T20:39:18.132Z,92532.75
2023-05-22T20:42:02.718Z,92539.19
2023-05-22T20:44:47.773Z,92541.78
2023-05-22T20:47:31.007Z,92541.22
2023-05-22T20:50:14.173Z,92545.75
2023-05-22T20:53:00.165Z,92543.03
2023-05-22T20:55:43.873Z,92550.50
2023-05-22T20:58:27.329Z,92549.13
2023-05-22T21:01:12.391Z,92547.19
2023-05-22T21:03:56.438Z,92549.09
2023-05-22T21:06:40.332Z,92546.31
2023-05-22T21:09:23.218Z,92552.81
2023-05-22T21:12:06.355Z,92548.25
2023-05-22T21:14:49.292Z,92553.13
2023-05-22T21:17:33.455Z,92551.97
2023-05-22T21:20:16.432Z,92553.63
2023-05-22T21:22:59.354Z,92552.22
2023-05-22T21:25:42.483Z,92549.28
2023-05-22T21:28:25.323Z,92553.13
2023-05-22T21:31:08.173Z,92551.97
2023-05-22T21:33:52.401Z,92554.22
2023-05-22T21:36:35.222Z,92551.03
2023-05-22T21:39:18.298Z,92542.84
2023-05-22T21:42:01.185Z,92543.88
2023-05-22T21:44:44.015Z,92543.47
2023-05-22T21:47:27.244Z,92540.28
2023-05-22T21:50:12.443Z,92541.53
2023-05-22T21:52:55.287Z,92554.25
2023-05-22T21:55:38.327Z,92557.28
2023-05-22T21:58:21.587Z,92549.69
2023-05-22T22:01:04.595Z,92542.28
2023-05-22T22:03:47.474Z,92541.69
2023-05-22T22:06:32.264Z,92544.53
2023-05-22T22:09:15.180Z,92537.91
2023-05-22T22:11:58.237Z,92534.72
2023-05-22T22:14:41.173Z,92530.53
2023-05-22T22:17:24.131Z,92529.16
2023-05-22T22:20:09.191Z,92529.94
2023-05-22T22:22:53.399Z,92525.19
2023-05-22T22:25:36.323Z,92524.34
2023-05-22T22:28:19.227Z,92519.00
2023-05-22T22:31:02.082Z,92522.84
2023-05-22T22:33:44.904Z,92524.44
2023-05-22T22:36:27.878Z,92528.88
2023-05-22T22:39:12.245Z,92522.84
2023-05-22T22:41:55.119Z,92528.28
2023-05-22T22:44:37.967Z,92527.91
2023-05-22T22:47:22.022Z,92527.34
2023-05-22T22:50:05.629Z,92520.38
2023-05-22T22:52:48.499Z,92529.88
2023-05-22T22:55:32.876Z,92520.69
2023-05-22T22:58:18.702Z,92517.94
2023-05-22T23:01:02.670Z,92523.56
2023-05-22T23:03:45.614Z,92517.78
2023-05-22T23:06:29.690Z,92519.38
2023-05-22T23:09:12.735Z,92519.16
2023-05-22T23:11:56.930Z,92521.75
2023-05-22T23:14:39.756Z,92518.38
2023-05-22T23:17:22.654Z,92524.81
2023-05-22T23:20:06.477Z,92522.22
2023-05-22T23:22:49.301Z,92514.59
2023-05-22T23:25:32.198Z,92507.19
2023-05-22T23:28:16.902Z,92509.66
2023-05-22T23:30:59.769Z,92513.69
2023-05-22T23:33:42.816Z,92512.00
2023-05-22T23:36:26.079Z,92507.25
2023-05-22T23:39:09.066Z,92502.69
2023-05-22T23:41:54.147Z,92507.91
2023-05-22T23:44:38.486Z,92501.69
2023-05-22T23:47:21.409Z,92502.47
2023-05-22T23:50:04.653Z,92498.28
2023-05-22T23:52:48.445Z,92495.09
2023-05-22T23:55:31.381Z,92495.69
2023-05-22T23:58:15.908Z,92494.88
